Lady's Island, SC (29907)

12:29 PM EDT on April 29, 2017 (GMT -0400)
Dataw Island | | Change Station

Elev 21 ft 32.44 °N, 80.58 °W | Updated 4 minutes ago

Haze
Haze
81.9 °F
Feels Like 87 °F
N
1.0
Wind Variable Wind from WNW
Gusts 4.0 mph

Today
High -- | Low -- °F
--% Chance of Precip.
Yesterday
High -- | Low -- °F
Precip. -- in
Pressure 30.21 in
Visibility 5.0 miles
Clouds Clear
Heat Index 87 °F
Dew Point 73 °F
Humidity 75%
Rainfall 0.00 in
Snow Depth Not available.
6:37 AM 8:02 PM
Waxing Crescent, 14% visible
METAR KARW 291615Z AUTO 18012G16KT 5SM HZ CLR 27/22 A3021 RMK AO2
Pressure 30.21 in
Visibility 5.0 miles
Clouds Clear
Heat Index 87 °F
Dew Point 73 °F
Humidity 75%
Rainfall 0.00 in
Snow Depth Not available.
6:37 AM 8:02 PM
Waxing Crescent, 14% visible
METAR KARW 291615Z AUTO 18012G16KT 5SM HZ CLR 27/22 A3021 RMK AO2

Get Severe Weather Alerts

Thanks for signing up!

Be on the lookout for a verification email in your inbox.

You'll start receiving the daily forecast at 8 AM.

×

10-Day Weather Forecast

Almanac

Astronomy

Apr. 29, 2017 Rise Set
Actual Time
Civil Twilight
Nautical Twilight
Astronomical Twilight
Moon
Length of Visible Light
Length of Day
Tomorrow will be .
, % of the Moon is Illuminated

Today's Extremes

State Highs State Lows

Community

WunderPhotos

WunderBlog® & News

Nearby

Air Quality

  Air Quality AQ Index Pollutant
Not available.

Snow Depth

Station Depth Elevation

Earthquake Activity

City Distance Mag. Time & Date
Minimum magnitude displayed is 2.5.

Coastal Water Temperatures

Place Temperature

Stations

Nearby Weather Stations

Station Location Temp. Windchill Dew Point Humidity Wind Precip. Elev Updated Type
                   

Watches & Warnings

There are currently no watches in effect.